Cape Saint Claire, Maryland
Current Conditions -  °F | °C
As of 9:54 PM on Sunday 23 Nov 2014 (Local Time) from KNAK Reporting Station
Overcast Overcast  
Wind Chill: 46°   Ceiling: 5500
Heat Index: 49°   Visibility: 10mi
Dew Point: 45°   Wind: 7mph
Humidity: 86%   Direction: 130°SE
Pressure: 29.94"   Gusts: NA
Location:  38.9915°N, 76.5325°W
Report Text: KNAK 240254Z AUTO 13006KT 10SM FEW024 OVC055 09/07 A2994 RMK AO2 RAE36 SLP142 P0000 60000 T00940072 58038
Loading
Personal Weather Stations






























Interactive Weather Map New forecast layout! Learn more

10-Day Weather Forecast

Advertisements
Track Severe Weather on mobile